sensor_id;sensor_type;location;lat;lon;timestamp;P1;durP1;ratioP1;P2;durP2;ratioP2
78416;SDS011;67715;46.170;6.140;2024-03-22T00:01:08;4.23;;;2.37;;
78416;SDS011;67715;46.170;6.140;2024-03-22T00:03:33;4.90;;;2.33;;
78416;SDS011;67715;46.170;6.140;2024-03-22T00:05:59;5.22;;;2.50;;
78416;SDS011;67715;46.170;6.140;2024-03-22T00:08:24;4.00;;;2.40;;
78416;SDS011;67715;46.170;6.140;2024-03-22T00:10:49;5.25;;;2.60;;
78416;SDS011;67715;46.170;6.140;2024-03-22T00:13:15;5.88;;;2.63;;
78416;SDS011;67715;46.170;6.140;2024-03-22T00:15:40;5.70;;;2.63;;
78416;SDS011;67715;46.170;6.140;2024-03-22T00:18:07;5.85;;;2.42;;
78416;SDS011;67715;46.170;6.140;2024-03-22T00:20:32;3.80;;;2.50;;
78416;SDS011;67715;46.170;6.140;2024-03-22T00:22:58;4.63;;;2.10;;
78416;SDS011;67715;46.170;6.140;2024-03-22T00:25:23;3.80;;;2.57;;
78416;SDS011;67715;46.170;6.140;2024-03-22T00:27:48;3.07;;;2.40;;
78416;SDS011;67715;46.170;6.140;2024-03-22T00:30:14;5.53;;;2.30;;
78416;SDS011;67715;46.170;6.140;2024-03-22T00:32:40;4.35;;;2.53;;
78416;SDS011;67715;46.170;6.140;2024-03-22T00:35:05;5.53;;;3.43;;
78416;SDS011;67715;46.170;6.140;2024-03-22T00:37:31;3.72;;;1.92;;
78416;SDS011;67715;46.170;6.140;2024-03-22T00:39:56;3.70;;;2.50;;
78416;SDS011;67715;46.170;6.140;2024-03-22T00:42:22;4.23;;;3.00;;
78416;SDS011;67715;46.170;6.140;2024-03-22T00:44:47;3.60;;;2.40;;
78416;SDS011;67715;46.170;6.140;2024-03-22T00:47:12;4.73;;;3.00;;
78416;SDS011;67715;46.170;6.140;2024-03-22T00:49:38;5.50;;;2.53;;
78416;SDS011;67715;46.170;6.140;2024-03-22T00:52:03;4.03;;;2.70;;
78416;SDS011;67715;46.170;6.140;2024-03-22T00:54:28;4.93;;;2.38;;
78416;SDS011;67715;46.170;6.140;2024-03-22T00:56:54;5.80;;;2.30;;
78416;SDS011;67715;46.170;6.140;2024-03-22T00:59:19;4.00;;;2.33;;
78416;SDS011;67715;46.170;6.140;2024-03-22T01:01:44;5.10;;;2.50;;
78416;SDS011;67715;46.170;6.140;2024-03-22T01:04:10;4.35;;;2.72;;
78416;SDS011;67715;46.170;6.140;2024-03-22T01:06:35;5.60;;;2.50;;
78416;SDS011;67715;46.170;6.140;2024-03-22T01:09:00;6.63;;;2.43;;
78416;SDS011;67715;46.170;6.140;2024-03-22T01:11:25;4.40;;;2.80;;
78416;SDS011;67715;46.170;6.140;2024-03-22T01:13:51;4.73;;;2.80;;
78416;SDS011;67715;46.170;6.140;2024-03-22T01:16:16;5.53;;;3.17;;
78416;SDS011;67715;46.170;6.140;2024-03-22T01:18:41;6.30;;;3.10;;
78416;SDS011;67715;46.170;6.140;2024-03-22T01:21:07;5.40;;;3.37;;
78416;SDS011;67715;46.170;6.140;2024-03-22T01:23:32;4.03;;;2.77;;
78416;SDS011;67715;46.170;6.140;2024-03-22T01:25:57;5.07;;;3.43;;
78416;SDS011;67715;46.170;6.140;2024-03-22T01:28:23;6.37;;;3.57;;
78416;SDS011;67715;46.170;6.140;2024-03-22T01:30:48;4.85;;;3.35;;
78416;SDS011;67715;46.170;6.140;2024-03-22T01:33:13;5.47;;;2.97;;
78416;SDS011;67715;46.170;6.140;2024-03-22T01:35:38;4.87;;;3.60;;
78416;SDS011;67715;46.170;6.140;2024-03-22T01:38:04;5.30;;;3.38;;
78416;SDS011;67715;46.170;6.140;2024-03-22T01:40:29;4.87;;;3.13;;
78416;SDS011;67715;46.170;6.140;2024-03-22T01:42:55;5.40;;;3.25;;
78416;SDS011;67715;46.170;6.140;2024-03-22T01:45:21;3.28;;;2.58;;
78416;SDS011;67715;46.170;6.140;2024-03-22T01:47:49;4.28;;;3.03;;
78416;SDS011;67715;46.170;6.140;2024-03-22T01:50:15;3.13;;;2.42;;
78416;SDS011;67715;46.170;6.140;2024-03-22T01:52:40;4.75;;;2.78;;
78416;SDS011;67715;46.170;6.140;2024-03-22T01:55:06;4.28;;;2.70;;
78416;SDS011;67715;46.170;6.140;2024-03-22T01:57:32;4.88;;;2.70;;
78416;SDS011;67715;46.170;6.140;2024-03-22T01:59:58;4.13;;;2.80;;
78416;SDS011;67715;46.170;6.140;2024-03-22T02:02:24;4.00;;;2.95;;
78416;SDS011;67715;46.170;6.140;2024-03-22T02:04:50;5.30;;;2.83;;
78416;SDS011;67715;46.170;6.140;2024-03-22T02:07:16;6.35;;;2.55;;
78416;SDS011;67715;46.170;6.140;2024-03-22T02:09:41;5.00;;;2.50;;
78416;SDS011;67715;46.170;6.140;2024-03-22T02:12:08;4.87;;;2.87;;
78416;SDS011;67715;46.170;6.140;2024-03-22T02:14:33;5.38;;;2.65;;
78416;SDS011;67715;46.170;6.140;2024-03-22T02:16:59;4.07;;;2.00;;
78416;SDS011;67715;46.170;6.140;2024-03-22T02:19:24;3.37;;;2.27;;
78416;SDS011;67715;46.170;6.140;2024-03-22T02:21:49;5.50;;;2.50;;
78416;SDS011;67715;46.170;6.140;2024-03-22T02:24:15;4.80;;;2.80;;
78416;SDS011;67715;46.170;6.140;2024-03-22T02:26:40;3.90;;;2.47;;
78416;SDS011;67715;46.170;6.140;2024-03-22T02:29:05;4.00;;;2.10;;
78416;SDS011;67715;46.170;6.140;2024-03-22T02:31:31;6.10;;;2.63;;
78416;SDS011;67715;46.170;6.140;2024-03-22T02:33:57;4.22;;;2.60;;
78416;SDS011;67715;46.170;6.140;2024-03-22T02:36:23;3.38;;;2.40;;
78416;SDS011;67715;46.170;6.140;2024-03-22T02:38:48;5.63;;;2.77;;
78416;SDS011;67715;46.170;6.140;2024-03-22T02:41:13;3.67;;;2.03;;
78416;SDS011;67715;46.170;6.140;2024-03-22T02:43:38;5.73;;;2.53;;
78416;SDS011;67715;46.170;6.140;2024-03-22T02:46:04;4.23;;;2.37;;
78416;SDS011;67715;46.170;6.140;2024-03-22T02:48:29;2.97;;;1.97;;
78416;SDS011;67715;46.170;6.140;2024-03-22T02:50:56;3.58;;;2.00;;
78416;SDS011;67715;46.170;6.140;2024-03-22T02:53:22;2.75;;;1.98;;
78416;SDS011;67715;46.170;6.140;2024-03-22T02:55:47;2.58;;;2.00;;
78416;SDS011;67715;46.170;6.140;2024-03-22T02:58:13;5.30;;;2.50;;
78416;SDS011;67715;46.170;6.140;2024-03-22T03:00:38;3.00;;;1.87;;
78416;SDS011;67715;46.170;6.140;2024-03-22T03:03:07;4.47;;;2.63;;
78416;SDS011;67715;46.170;6.140;2024-03-22T03:05:32;3.22;;;2.33;;
78416;SDS011;67715;46.170;6.140;2024-03-22T03:07:58;3.25;;;1.95;;
78416;SDS011;67715;46.170;6.140;2024-03-22T03:10:23;2.97;;;2.03;;
78416;SDS011;67715;46.170;6.140;2024-03-22T03:12:48;3.63;;;2.17;;
78416;SDS011;67715;46.170;6.140;2024-03-22T03:15:14;3.10;;;1.93;;
78416;SDS011;67715;46.170;6.140;2024-03-22T03:17:39;2.83;;;2.07;;
78416;SDS011;67715;46.170;6.140;2024-03-22T03:20:05;2.35;;;1.80;;
78416;SDS011;67715;46.170;6.140;2024-03-22T03:22:35;3.17;;;2.03;;
78416;SDS011;67715;46.170;6.140;2024-03-22T03:25:00;2.20;;;1.80;;
78416;SDS011;67715;46.170;6.140;2024-03-22T03:27:26;7.50;;;2.50;;
78416;SDS011;67715;46.170;6.140;2024-03-22T03:29:51;5.35;;;2.08;;
78416;SDS011;67715;46.170;6.140;2024-03-22T03:32:17;3.10;;;1.90;;
78416;SDS011;67715;46.170;6.140;2024-03-22T03:34:42;3.70;;;2.40;;
78416;SDS011;67715;46.170;6.140;2024-03-22T03:37:07;2.43;;;1.73;;
78416;SDS011;67715;46.170;6.140;2024-03-22T03:39:32;3.73;;;2.17;;
78416;SDS011;67715;46.170;6.140;2024-03-22T03:41:58;6.93;;;2.30;;
78416;SDS011;67715;46.170;6.140;2024-03-22T03:44:23;4.37;;;2.10;;
78416;SDS011;67715;46.170;6.140;2024-03-22T03:46:48;5.23;;;2.40;;
78416;SDS011;67715;46.170;6.140;2024-03-22T03:49:14;3.63;;;2.10;;
78416;SDS011;67715;46.170;6.140;2024-03-22T03:51:39;2.40;;;1.90;;
78416;SDS011;67715;46.170;6.140;2024-03-22T03:54:04;7.27;;;2.37;;
78416;SDS011;67715;46.170;6.140;2024-03-22T03:56:30;3.80;;;2.00;;
78416;SDS011;67715;46.170;6.140;2024-03-22T03:58:55;3.97;;;2.20;;
78416;SDS011;67715;46.170;6.140;2024-03-22T04:01:20;4.53;;;2.30;;
78416;SDS011;67715;46.170;6.140;2024-03-22T04:03:48;3.83;;;2.00;;
78416;SDS011;67715;46.170;6.140;2024-03-22T04:06:13;2.08;;;1.70;;
78416;SDS011;67715;46.170;6.140;2024-03-22T04:08:39;3.73;;;2.03;;
78416;SDS011;67715;46.170;6.140;2024-03-22T04:11:04;6.30;;;2.60;;
78416;SDS011;67715;46.170;6.140;2024-03-22T04:13:29;4.00;;;2.40;;
78416;SDS011;67715;46.170;6.140;2024-03-22T04:15:58;3.10;;;2.13;;
78416;SDS011;67715;46.170;6.140;2024-03-22T04:18:23;4.72;;;2.38;;
78416;SDS011;67715;46.170;6.140;2024-03-22T04:20:55;2.50;;;2.30;;
78416;SDS011;67715;46.170;6.140;2024-03-22T04:23:21;3.15;;;1.85;;
78416;SDS011;67715;46.170;6.140;2024-03-22T04:26:00;3.88;;;2.30;;
78416;SDS011;67715;46.170;6.140;2024-03-22T04:31:01;5.47;;;2.28;;
78416;SDS011;67715;46.170;6.140;2024-03-22T04:33:30;6.22;;;3.28;;
78416;SDS011;67715;46.170;6.140;2024-03-22T04:35:56;5.15;;;2.20;;
78416;SDS011;67715;46.170;6.140;2024-03-22T04:38:22;4.30;;;2.47;;
78416;SDS011;67715;46.170;6.140;2024-03-22T04:40:48;3.45;;;2.25;;
78416;SDS011;67715;46.170;6.140;2024-03-22T04:43:14;3.07;;;2.23;;
78416;SDS011;67715;46.170;6.140;2024-03-22T04:45:41;5.30;;;2.67;;
78416;SDS011;67715;46.170;6.140;2024-03-22T04:48:07;3.78;;;2.38;;
78416;SDS011;67715;46.170;6.140;2024-03-22T04:50:33;4.53;;;2.78;;
78416;SDS011;67715;46.170;6.140;2024-03-22T04:52:58;3.17;;;2.27;;
78416;SDS011;67715;46.170;6.140;2024-03-22T04:55:23;5.03;;;2.67;;
78416;SDS011;67715;46.170;6.140;2024-03-22T04:57:49;4.40;;;2.50;;
78416;SDS011;67715;46.170;6.140;2024-03-22T05:00:14;5.38;;;2.88;;
78416;SDS011;67715;46.170;6.140;2024-03-22T05:02:40;3.45;;;2.78;;
78416;SDS011;67715;46.170;6.140;2024-03-22T05:05:05;2.53;;;2.20;;
78416;SDS011;67715;46.170;6.140;2024-03-22T05:07:32;5.43;;;2.20;;
78416;SDS011;67715;46.170;6.140;2024-03-22T05:09:57;4.93;;;2.63;;
78416;SDS011;67715;46.170;6.140;2024-03-22T05:12:23;5.20;;;2.70;;
78416;SDS011;67715;46.170;6.140;2024-03-22T05:14:48;4.77;;;2.57;;
78416;SDS011;67715;46.170;6.140;2024-03-22T05:17:13;5.57;;;2.60;;
78416;SDS011;67715;46.170;6.140;2024-03-22T05:19:39;4.60;;;2.13;;
78416;SDS011;67715;46.170;6.140;2024-03-22T05:22:04;4.73;;;2.93;;
78416;SDS011;67715;46.170;6.140;2024-03-22T05:24:29;4.80;;;2.83;;
78416;SDS011;67715;46.170;6.140;2024-03-22T05:26:54;3.57;;;2.37;;
78416;SDS011;67715;46.170;6.140;2024-03-22T05:29:20;4.67;;;2.60;;
78416;SDS011;67715;46.170;6.140;2024-03-22T05:31:49;3.83;;;2.53;;
78416;SDS011;67715;46.170;6.140;2024-03-22T05:34:16;6.00;;;2.85;;
78416;SDS011;67715;46.170;6.140;2024-03-22T05:36:41;4.28;;;2.60;;
78416;SDS011;67715;46.170;6.140;2024-03-22T05:39:07;5.53;;;2.80;;
78416;SDS011;67715;46.170;6.140;2024-03-22T05:41:33;4.28;;;2.40;;
78416;SDS011;67715;46.170;6.140;2024-03-22T05:43:58;4.57;;;2.70;;
78416;SDS011;67715;46.170;6.140;2024-03-22T05:46:23;5.03;;;2.60;;
78416;SDS011;67715;46.170;6.140;2024-03-22T05:48:49;4.40;;;2.73;;
78416;SDS011;67715;46.170;6.140;2024-03-22T05:51:15;5.38;;;2.53;;
78416;SDS011;67715;46.170;6.140;2024-03-22T05:53:41;4.13;;;2.38;;
78416;SDS011;67715;46.170;6.140;2024-03-22T05:56:07;6.47;;;3.15;;
78416;SDS011;67715;46.170;6.140;2024-03-22T05:58:32;4.80;;;2.80;;
78416;SDS011;67715;46.170;6.140;2024-03-22T06:00:58;3.60;;;2.20;;
78416;SDS011;67715;46.170;6.140;2024-03-22T06:03:23;5.73;;;2.93;;
78416;SDS011;67715;46.170;6.140;2024-03-22T06:05:48;5.67;;;3.90;;
78416;SDS011;67715;46.170;6.140;2024-03-22T06:08:14;5.00;;;2.92;;
78416;SDS011;67715;46.170;6.140;2024-03-22T06:10:43;4.45;;;2.90;;
78416;SDS011;67715;46.170;6.140;2024-03-22T06:13:09;5.22;;;3.50;;
78416;SDS011;67715;46.170;6.140;2024-03-22T06:15:35;5.17;;;3.20;;
78416;SDS011;67715;46.170;6.140;2024-03-22T06:18:00;5.43;;;3.17;;
78416;SDS011;67715;46.170;6.140;2024-03-22T06:20:25;5.63;;;3.00;;
78416;SDS011;67715;46.170;6.140;2024-03-22T06:22:51;5.40;;;3.50;;
78416;SDS011;67715;46.170;6.140;2024-03-22T06:25:16;5.90;;;3.20;;
78416;SDS011;67715;46.170;6.140;2024-03-22T06:27:41;3.90;;;3.13;;
78416;SDS011;67715;46.170;6.140;2024-03-22T06:30:06;5.30;;;2.93;;
78416;SDS011;67715;46.170;6.140;2024-03-22T06:32:32;6.82;;;3.03;;
78416;SDS011;67715;46.170;6.140;2024-03-22T06:34:58;4.57;;;3.40;;
78416;SDS011;67715;46.170;6.140;2024-03-22T06:37:23;5.43;;;3.03;;
78416;SDS011;67715;46.170;6.140;2024-03-22T06:39:48;5.47;;;3.17;;
78416;SDS011;67715;46.170;6.140;2024-03-22T06:42:13;5.70;;;3.37;;
78416;SDS011;67715;46.170;6.140;2024-03-22T06:44:39;6.43;;;3.27;;
78416;SDS011;67715;46.170;6.140;2024-03-22T06:47:04;5.67;;;2.67;;
78416;SDS011;67715;46.170;6.140;2024-03-22T06:49:29;3.57;;;2.97;;
78416;SDS011;67715;46.170;6.140;2024-03-22T06:51:55;9.43;;;4.33;;
78416;SDS011;67715;46.170;6.140;2024-03-22T06:54:20;5.17;;;4.17;;
78416;SDS011;67715;46.170;6.140;2024-03-22T06:56:45;9.83;;;4.67;;
78416;SDS011;67715;46.170;6.140;2024-03-22T06:59:11;7.17;;;5.17;;
78416;SDS011;67715;46.170;6.140;2024-03-22T07:01:36;8.97;;;4.13;;
78416;SDS011;67715;46.170;6.140;2024-03-22T07:04:01;6.25;;;4.30;;
78416;SDS011;67715;46.170;6.140;2024-03-22T07:06:27;7.25;;;4.10;;
78416;SDS011;67715;46.170;6.140;2024-03-22T07:08:53;5.60;;;3.95;;
78416;SDS011;67715;46.170;6.140;2024-03-22T07:11:18;9.53;;;4.50;;
78416;SDS011;67715;46.170;6.140;2024-03-22T07:13:43;5.97;;;4.20;;
78416;SDS011;67715;46.170;6.140;2024-03-22T07:16:09;7.97;;;4.63;;
78416;SDS011;67715;46.170;6.140;2024-03-22T07:18:34;6.22;;;4.18;;
78416;SDS011;67715;46.170;6.140;2024-03-22T07:21:00;6.60;;;5.00;;
78416;SDS011;67715;46.170;6.140;2024-03-22T07:23:27;6.45;;;4.45;;
78416;SDS011;67715;46.170;6.140;2024-03-22T07:25:52;8.70;;;4.00;;
78416;SDS011;67715;46.170;6.140;2024-03-22T07:28:18;9.03;;;5.27;;
78416;SDS011;67715;46.170;6.140;2024-03-22T07:30:43;7.18;;;4.63;;
78416;SDS011;67715;46.170;6.140;2024-03-22T07:33:10;5.90;;;4.27;;
78416;SDS011;67715;46.170;6.140;2024-03-22T07:35:38;13.18;;;3.85;;
78416;SDS011;67715;46.170;6.140;2024-03-22T07:38:03;11.75;;;4.10;;
78416;SDS011;67715;46.170;6.140;2024-03-22T07:40:29;7.18;;;4.30;;
78416;SDS011;67715;46.170;6.140;2024-03-22T07:42:54;6.32;;;4.07;;
78416;SDS011;67715;46.170;6.140;2024-03-22T07:45:20;8.23;;;4.90;;
78416;SDS011;67715;46.170;6.140;2024-03-22T07:47:45;6.80;;;3.60;;
78416;SDS011;67715;46.170;6.140;2024-03-22T07:50:10;5.53;;;4.07;;
78416;SDS011;67715;46.170;6.140;2024-03-22T07:52:36;7.70;;;4.13;;
78416;SDS011;67715;46.170;6.140;2024-03-22T07:55:01;11.33;;;3.80;;
78416;SDS011;67715;46.170;6.140;2024-03-22T07:57:28;8.93;;;3.95;;
78416;SDS011;67715;46.170;6.140;2024-03-22T07:59:56;7.63;;;4.20;;
78416;SDS011;67715;46.170;6.140;2024-03-22T08:02:22;5.90;;;3.95;;
78416;SDS011;67715;46.170;6.140;2024-03-22T08:04:47;7.40;;;3.10;;
78416;SDS011;67715;46.170;6.140;2024-03-22T08:07:12;6.20;;;3.20;;
78416;SDS011;67715;46.170;6.140;2024-03-22T08:09:38;7.87;;;3.73;;
78416;SDS011;67715;46.170;6.140;2024-03-22T08:12:03;8.23;;;3.77;;
78416;SDS011;67715;46.170;6.140;2024-03-22T08:14:28;10.52;;;3.88;;
78416;SDS011;67715;46.170;6.140;2024-03-22T08:16:54;5.47;;;3.87;;
78416;SDS011;67715;46.170;6.140;2024-03-22T08:19:19;5.50;;;3.60;;
78416;SDS011;67715;46.170;6.140;2024-03-22T08:21:44;5.00;;;4.00;;
78416;SDS011;67715;46.170;6.140;2024-03-22T08:24:10;4.70;;;3.23;;
78416;SDS011;67715;46.170;6.140;2024-03-22T08:26:35;8.77;;;3.87;;
78416;SDS011;67715;46.170;6.140;2024-03-22T08:29:00;5.93;;;3.57;;
78416;SDS011;67715;46.170;6.140;2024-03-22T08:31:26;5.30;;;3.10;;
78416;SDS011;67715;46.170;6.140;2024-03-22T08:33:53;4.32;;;3.17;;
78416;SDS011;67715;46.170;6.140;2024-03-22T08:36:20;5.93;;;3.22;;
78416;SDS011;67715;46.170;6.140;2024-03-22T08:38:46;5.32;;;3.33;;
78416;SDS011;67715;46.170;6.140;2024-03-22T08:41:11;10.83;;;2.97;;
78416;SDS011;67715;46.170;6.140;2024-03-22T08:43:37;7.10;;;3.80;;
78416;SDS011;67715;46.170;6.140;2024-03-22T08:46:02;5.67;;;3.20;;
78416;SDS011;67715;46.170;6.140;2024-03-22T08:48:28;6.13;;;3.38;;
78416;SDS011;67715;46.170;6.140;2024-03-22T08:50:53;4.50;;;3.17;;
78416;SDS011;67715;46.170;6.140;2024-03-22T08:53:19;4.47;;;2.90;;
78416;SDS011;67715;46.170;6.140;2024-03-22T08:55:47;4.23;;;2.60;;
78416;SDS011;67715;46.170;6.140;2024-03-22T08:58:14;6.90;;;3.08;;
78416;SDS011;67715;46.170;6.140;2024-03-22T09:00:40;4.80;;;2.75;;
78416;SDS011;67715;46.170;6.140;2024-03-22T09:03:06;5.13;;;3.00;;
78416;SDS011;67715;46.170;6.140;2024-03-22T09:05:32;7.53;;;3.10;;
78416;SDS011;67715;46.170;6.140;2024-03-22T09:07:58;7.05;;;3.15;;
78416;SDS011;67715;46.170;6.140;2024-03-22T09:10:23;7.05;;;2.72;;
78416;SDS011;67715;46.170;6.140;2024-03-22T09:12:49;4.77;;;3.07;;
78416;SDS011;67715;46.170;6.140;2024-03-22T09:15:14;6.83;;;3.27;;
78416;SDS011;67715;46.170;6.140;2024-03-22T09:17:39;5.47;;;2.90;;
78416;SDS011;67715;46.170;6.140;2024-03-22T09:20:05;3.27;;;2.30;;
78416;SDS011;67715;46.170;6.140;2024-03-22T09:22:32;4.57;;;2.47;;
78416;SDS011;67715;46.170;6.140;2024-03-22T09:24:57;5.57;;;3.00;;
78416;SDS011;67715;46.170;6.140;2024-03-22T09:27:23;4.40;;;1.95;;
78416;SDS011;67715;46.170;6.140;2024-03-22T09:29:48;3.90;;;2.30;;
78416;SDS011;67715;46.170;6.140;2024-03-22T09:32:14;6.22;;;3.42;;
78416;SDS011;67715;46.170;6.140;2024-03-22T09:34:39;4.90;;;3.00;;
78416;SDS011;67715;46.170;6.140;2024-03-22T09:37:05;4.57;;;2.38;;
78416;SDS011;67715;46.170;6.140;2024-03-22T09:39:31;7.97;;;2.58;;
78416;SDS011;67715;46.170;6.140;2024-03-22T09:41:57;3.88;;;2.50;;
78416;SDS011;67715;46.170;6.140;2024-03-22T09:44:22;3.95;;;2.50;;
78416;SDS011;67715;46.170;6.140;2024-03-22T09:46:48;4.65;;;3.00;;
78416;SDS011;67715;46.170;6.140;2024-03-22T09:49:15;4.53;;;2.40;;
78416;SDS011;67715;46.170;6.140;2024-03-22T09:51:41;6.65;;;2.70;;
78416;SDS011;67715;46.170;6.140;2024-03-22T09:54:08;4.00;;;2.30;;
78416;SDS011;67715;46.170;6.140;2024-03-22T09:56:34;5.95;;;2.67;;
78416;SDS011;67715;46.170;6.140;2024-03-22T09:59:00;4.97;;;2.10;;
78416;SDS011;67715;46.170;6.140;2024-03-22T10:01:25;2.75;;;1.75;;
78416;SDS011;67715;46.170;6.140;2024-03-22T10:03:51;2.70;;;1.80;;
78416;SDS011;67715;46.170;6.140;2024-03-22T10:06:17;3.42;;;2.00;;
78416;SDS011;67715;46.170;6.140;2024-03-22T10:08:42;4.28;;;2.10;;
78416;SDS011;67715;46.170;6.140;2024-03-22T10:11:07;2.87;;;2.20;;
78416;SDS011;67715;46.170;6.140;2024-03-22T10:13:33;2.40;;;1.70;;
78416;SDS011;67715;46.170;6.140;2024-03-22T10:15:58;3.47;;;2.13;;
78416;SDS011;67715;46.170;6.140;2024-03-22T10:18:23;7.07;;;2.93;;
78416;SDS011;67715;46.170;6.140;2024-03-22T10:21:01;4.20;;;2.37;;
78416;SDS011;67715;46.170;6.140;2024-03-22T10:25:52;4.00;;;1.88;;
78416;SDS011;67715;46.170;6.140;2024-03-22T10:28:18;3.57;;;1.80;;
78416;SDS011;67715;46.170;6.140;2024-03-22T10:30:43;4.83;;;2.50;;
78416;SDS011;67715;46.170;6.140;2024-03-22T10:33:09;5.25;;;2.50;;
78416;SDS011;67715;46.170;6.140;2024-03-22T10:35:35;3.28;;;2.50;;
78416;SDS011;67715;46.170;6.140;2024-03-22T10:38:01;4.35;;;2.30;;
78416;SDS011;67715;46.170;6.140;2024-03-22T10:40:27;3.20;;;2.00;;
78416;SDS011;67715;46.170;6.140;2024-03-22T10:42:53;4.68;;;2.17;;
78416;SDS011;67715;46.170;6.140;2024-03-22T10:45:18;3.80;;;1.88;;
78416;SDS011;67715;46.170;6.140;2024-03-22T10:47:47;2.97;;;1.90;;
78416;SDS011;67715;46.170;6.140;2024-03-22T10:50:13;3.55;;;1.67;;
78416;SDS011;67715;46.170;6.140;2024-03-22T10:52:39;3.20;;;1.88;;
78416;SDS011;67715;46.170;6.140;2024-03-22T10:55:08;5.88;;;2.13;;
78416;SDS011;67715;46.170;6.140;2024-03-22T10:57:37;7.35;;;2.58;;
78416;SDS011;67715;46.170;6.140;2024-03-22T11:00:04;2.85;;;2.08;;
78416;SDS011;67715;46.170;6.140;2024-03-22T11:02:35;3.22;;;1.75;;
78416;SDS011;67715;46.170;6.140;2024-03-22T11:05:00;4.45;;;2.00;;
78416;SDS011;67715;46.170;6.140;2024-03-22T11:07:32;4.17;;;1.93;;
78416;SDS011;67715;46.170;6.140;2024-03-22T11:12:24;1.83;;;1.38;;
78416;SDS011;67715;46.170;6.140;2024-03-22T11:14:50;4.80;;;1.88;;
78416;SDS011;67715;46.170;6.140;2024-03-22T11:17:17;2.40;;;1.60;;
78416;SDS011;67715;46.170;6.140;2024-03-22T11:19:42;3.50;;;1.60;;
78416;SDS011;67715;46.170;6.140;2024-03-22T11:22:07;4.53;;;1.70;;
78416;SDS011;67715;46.170;6.140;2024-03-22T11:24:33;2.45;;;1.38;;
78416;SDS011;67715;46.170;6.140;2024-03-22T11:26:58;3.03;;;2.03;;
78416;SDS011;67715;46.170;6.140;2024-03-22T11:29:24;5.77;;;1.70;;
78416;SDS011;67715;46.170;6.140;2024-03-22T11:31:49;2.72;;;1.50;;
78416;SDS011;67715;46.170;6.140;2024-03-22T11:34:15;2.60;;;1.60;;
78416;SDS011;67715;46.170;6.140;2024-03-22T11:36:40;5.15;;;1.73;;
78416;SDS011;67715;46.170;6.140;2024-03-22T11:39:05;3.03;;;1.20;;
78416;SDS011;67715;46.170;6.140;2024-03-22T11:41:31;4.32;;;1.80;;
78416;SDS011;67715;46.170;6.140;2024-03-22T11:43:57;2.67;;;1.30;;
78416;SDS011;67715;46.170;6.140;2024-03-22T11:46:24;2.22;;;1.45;;
78416;SDS011;67715;46.170;6.140;2024-03-22T11:48:52;1.98;;;1.27;;
78416;SDS011;67715;46.170;6.140;2024-03-22T11:51:18;3.30;;;1.40;;
78416;SDS011;67715;46.170;6.140;2024-03-22T11:53:50;2.92;;;1.52;;
78416;SDS011;67715;46.170;6.140;2024-03-22T11:56:25;3.72;;;1.45;;
78416;SDS011;67715;46.170;6.140;2024-03-22T11:58:57;1.70;;;1.20;;
78416;SDS011;67715;46.170;6.140;2024-03-22T12:01:23;3.95;;;1.60;;
78416;SDS011;67715;46.170;6.140;2024-03-22T12:03:48;3.67;;;1.58;;
78416;SDS011;67715;46.170;6.140;2024-03-22T12:06:14;2.40;;;1.33;;
78416;SDS011;67715;46.170;6.140;2024-03-22T12:08:40;1.35;;;1.00;;
78416;SDS011;67715;46.170;6.140;2024-03-22T12:11:09;1.42;;;0.88;;
78416;SDS011;67715;46.170;6.140;2024-03-22T12:13:35;2.20;;;1.10;;
78416;SDS011;67715;46.170;6.140;2024-03-22T12:16:00;1.60;;;1.05;;
78416;SDS011;67715;46.170;6.140;2024-03-22T12:18:26;3.05;;;1.30;;
78416;SDS011;67715;46.170;6.140;2024-03-22T12:20:52;2.33;;;1.52;;
78416;SDS011;67715;46.170;6.140;2024-03-22T12:23:17;2.37;;;1.20;;
78416;SDS011;67715;46.170;6.140;2024-03-22T12:25:43;2.97;;;1.30;;
78416;SDS011;67715;46.170;6.140;2024-03-22T12:28:08;1.60;;;1.00;;
78416;SDS011;67715;46.170;6.140;2024-03-22T12:30:33;1.33;;;0.90;;
78416;SDS011;67715;46.170;6.140;2024-03-22T12:32:59;2.20;;;0.83;;
78416;SDS011;67715;46.170;6.140;2024-03-22T12:35:24;2.20;;;1.00;;
78416;SDS011;67715;46.170;6.140;2024-03-22T12:37:51;6.38;;;1.80;;
78416;SDS011;67715;46.170;6.140;2024-03-22T12:40:16;3.20;;;1.53;;
78416;SDS011;67715;46.170;6.140;2024-03-22T12:42:41;3.80;;;1.77;;
78416;SDS011;67715;46.170;6.140;2024-03-22T12:45:06;3.73;;;1.60;;
78416;SDS011;67715;46.170;6.140;2024-03-22T12:47:32;7.57;;;1.90;;
78416;SDS011;67715;46.170;6.140;2024-03-22T12:49:58;5.55;;;1.75;;
78416;SDS011;67715;46.170;6.140;2024-03-22T12:52:23;3.00;;;1.70;;
78416;SDS011;67715;46.170;6.140;2024-03-22T12:54:49;3.80;;;2.03;;
78416;SDS011;67715;46.170;6.140;2024-03-22T12:57:14;2.78;;;1.40;;
78416;SDS011;67715;46.170;6.140;2024-03-22T12:59:39;3.73;;;1.47;;
78416;SDS011;67715;46.170;6.140;2024-03-22T13:02:04;6.40;;;2.47;;
78416;SDS011;67715;46.170;6.140;2024-03-22T13:04:30;3.83;;;1.80;;
78416;SDS011;67715;46.170;6.140;2024-03-22T13:06:56;3.15;;;1.70;;
78416;SDS011;67715;46.170;6.140;2024-03-22T13:09:21;2.43;;;1.50;;
78416;SDS011;67715;46.170;6.140;2024-03-22T13:11:47;2.27;;;1.50;;
78416;SDS011;67715;46.170;6.140;2024-03-22T13:14:13;3.45;;;1.25;;
78416;SDS011;67715;46.170;6.140;2024-03-22T13:16:39;2.15;;;1.30;;
78416;SDS011;67715;46.170;6.140;2024-03-22T13:19:05;4.78;;;1.65;;
78416;SDS011;67715;46.170;6.140;2024-03-22T13:21:33;3.13;;;1.60;;
78416;SDS011;67715;46.170;6.140;2024-03-22T13:23:58;3.25;;;1.65;;
78416;SDS011;67715;46.170;6.140;2024-03-22T13:26:23;1.87;;;1.40;;
78416;SDS011;67715;46.170;6.140;2024-03-22T13:28:49;2.85;;;1.50;;
78416;SDS011;67715;46.170;6.140;2024-03-22T13:31:14;2.97;;;1.53;;
78416;SDS011;67715;46.170;6.140;2024-03-22T13:33:40;2.33;;;1.30;;
78416;SDS011;67715;46.170;6.140;2024-03-22T13:36:05;3.37;;;1.73;;
78416;SDS011;67715;46.170;6.140;2024-03-22T13:38:31;1.90;;;1.60;;
78416;SDS011;67715;46.170;6.140;2024-03-22T13:40:56;1.85;;;1.25;;
78416;SDS011;67715;46.170;6.140;2024-03-22T13:43:23;4.80;;;1.30;;
78416;SDS011;67715;46.170;6.140;2024-03-22T13:45:50;6.65;;;1.40;;
78416;SDS011;67715;46.170;6.140;2024-03-22T13:48:19;2.15;;;1.42;;
78416;SDS011;67715;46.170;6.140;2024-03-22T13:50:44;2.67;;;1.50;;
78416;SDS011;67715;46.170;6.140;2024-03-22T13:53:11;5.10;;;1.38;;
78416;SDS011;67715;46.170;6.140;2024-03-22T13:55:36;3.53;;;1.90;;
78416;SDS011;67715;46.170;6.140;2024-03-22T13:58:02;3.67;;;1.77;;
78416;SDS011;67715;46.170;6.140;2024-03-22T14:00:27;2.55;;;1.50;;
78416;SDS011;67715;46.170;6.140;2024-03-22T14:02:52;4.67;;;1.73;;
78416;SDS011;67715;46.170;6.140;2024-03-22T14:05:19;2.97;;;1.60;;
78416;SDS011;67715;46.170;6.140;2024-03-22T14:07:44;3.08;;;1.45;;
78416;SDS011;67715;46.170;6.140;2024-03-22T14:10:10;2.43;;;1.40;;
78416;SDS011;67715;46.170;6.140;2024-03-22T14:12:38;2.53;;;1.45;;
78416;SDS011;67715;46.170;6.140;2024-03-22T14:15:03;4.67;;;1.33;;
78416;SDS011;67715;46.170;6.140;2024-03-22T14:17:29;3.53;;;1.50;;
78416;SDS011;67715;46.170;6.140;2024-03-22T14:19:55;1.67;;;1.30;;
78416;SDS011;67715;46.170;6.140;2024-03-22T14:22:21;3.35;;;1.52;;
78416;SDS011;67715;46.170;6.140;2024-03-22T14:24:47;3.80;;;1.53;;
78416;SDS011;67715;46.170;6.140;2024-03-22T14:27:12;1.63;;;1.30;;
78416;SDS011;67715;46.170;6.140;2024-03-22T14:29:37;3.57;;;1.37;;
78416;SDS011;67715;46.170;6.140;2024-03-22T14:32:02;3.03;;;1.33;;
78416;SDS011;67715;46.170;6.140;2024-03-22T14:34:28;5.03;;;1.30;;
78416;SDS011;67715;46.170;6.140;2024-03-22T14:36:53;1.65;;;1.20;;
78416;SDS011;67715;46.170;6.140;2024-03-22T14:39:19;1.77;;;1.50;;
78416;SDS011;67715;46.170;6.140;2024-03-22T14:41:44;2.93;;;1.53;;
78416;SDS011;67715;46.170;6.140;2024-03-22T14:44:09;2.87;;;1.23;;
78416;SDS011;67715;46.170;6.140;2024-03-22T14:46:34;2.00;;;1.10;;